createdAt,value
2018-10-21T00:00:03.021Z,-1.48
2018-10-21T00:02:30.838Z,-1.47
2018-10-21T00:04:58.440Z,-1.46
2018-10-21T00:07:26.274Z,-1.47
2018-10-21T00:09:53.992Z,-1.48
2018-10-21T00:12:21.721Z,-1.47
2018-10-21T00:14:49.456Z,-1.49
2018-10-21T00:17:17.176Z,-1.48
2018-10-21T00:19:44.897Z,-1.45
2018-10-21T00:22:12.599Z,-1.43
2018-10-21T00:24:40.303Z,-1.40
2018-10-21T00:27:08.142Z,-1.38
2018-10-21T00:29:35.803Z,-1.32
2018-10-21T00:32:03.577Z,-1.30
2018-10-21T00:34:31.300Z,-1.30
2018-10-21T00:36:59.064Z,-1.26
2018-10-21T00:39:26.765Z,-1.22
2018-10-21T00:41:54.528Z,-1.16
2018-10-21T00:44:22.322Z,-1.15
2018-10-21T00:46:50.026Z,-1.12
2018-10-21T00:49:17.729Z,-0.92
2018-10-21T00:51:45.452Z,-0.83
2018-10-21T00:54:13.206Z,-0.71
2018-10-21T00:56:41.101Z,-0.63
2018-10-21T00:59:09.545Z,-0.50
2018-10-21T01:01:37.277Z,-0.38
2018-10-21T01:04:05.491Z,-0.29
2018-10-21T01:06:33.467Z,-0.21
2018-10-21T01:09:01.673Z,-0.06
2018-10-21T01:11:29.428Z,0.12
2018-10-21T01:13:57.137Z,0.15
2018-10-21T01:16:24.976Z,0.15
2018-10-21T01:18:52.785Z,0.24
2018-10-21T01:21:20.502Z,0.24
2018-10-21T01:23:48.325Z,0.31
2018-10-21T01:26:16.050Z,0.41
2018-10-21T01:28:43.806Z,0.52
2018-10-21T01:31:11.550Z,0.65
2018-10-21T01:33:39.293Z,0.76
2018-10-21T01:36:07.086Z,0.88
2018-10-21T01:38:34.881Z,1.02
2018-10-21T01:41:02.592Z,1.14
2018-10-21T01:43:31.549Z,1.15
2018-10-21T01:45:59.720Z,1.22
2018-10-21T01:48:28.622Z,1.30
2018-10-21T01:50:56.446Z,1.35
2018-10-21T01:53:24.588Z,1.28
2018-10-21T01:55:52.356Z,1.34
2018-10-21T01:58:20.053Z,1.46
2018-10-21T02:00:47.868Z,1.79
2018-10-21T02:03:15.979Z,1.83
2018-10-21T02:05:44.564Z,1.84
2018-10-21T02:08:12.345Z,1.95
2018-10-21T02:10:40.157Z,2.11
2018-10-21T02:13:07.963Z,2.20
2018-10-21T02:15:35.685Z,2.14
2018-10-21T02:18:03.552Z,2.04
2018-10-21T02:20:31.300Z,2.04
2018-10-21T02:22:59.219Z,2.00
2018-10-21T02:25:26.958Z,2.10
2018-10-21T02:27:54.720Z,2.15
2018-10-21T02:30:24.631Z,2.12
2018-10-21T02:32:52.961Z,2.12
2018-10-21T02:35:21.136Z,2.20
2018-10-21T02:37:49.444Z,2.32
2018-10-21T02:41:42.878Z,2.43
2018-10-21T02:44:15.828Z,2.47
2018-10-21T02:46:44.223Z,2.54
2018-10-21T02:49:12.742Z,2.59
2018-10-21T02:51:40.480Z,2.67
2018-10-21T02:54:08.709Z,2.81
2018-10-21T02:56:36.448Z,2.90
2018-10-21T02:59:04.646Z,2.98
2018-10-21T03:01:32.419Z,2.94
2018-10-21T03:04:00.156Z,3.09
2018-10-21T03:06:27.953Z,3.13
2018-10-21T03:08:55.713Z,3.09
2018-10-21T03:11:23.464Z,3.23
2018-10-21T03:13:51.152Z,3.35
2018-10-21T03:16:18.928Z,3.55
2018-10-21T03:18:46.756Z,3.61
2018-10-21T03:21:14.632Z,3.72
2018-10-21T03:23:42.300Z,3.84
2018-10-21T03:26:10.065Z,4.05
2018-10-21T03:28:37.819Z,4.15
2018-10-21T03:31:05.561Z,4.18
2018-10-21T03:33:33.461Z,4.22
2018-10-21T03:36:01.174Z,4.24
2018-10-21T03:38:28.993Z,4.38
2018-10-21T03:40:56.825Z,4.48
2018-10-21T03:43:24.600Z,4.63
2018-10-21T03:45:52.419Z,4.71
2018-10-21T03:48:20.173Z,4.79
2018-10-21T03:50:47.923Z,4.80
2018-10-21T03:53:15.664Z,4.91
2018-10-21T03:55:43.697Z,4.73
2018-10-21T03:58:11.539Z,4.97
2018-10-21T04:00:39.357Z,5.05
2018-10-21T04:03:07.493Z,5.12
2018-10-21T04:05:35.694Z,5.21
2018-10-21T04:08:03.700Z,5.30
2018-10-21T04:10:31.504Z,5.41
2018-10-21T04:12:59.598Z,5.49
2018-10-21T04:15:27.397Z,5.55
2018-10-21T04:17:55.565Z,5.64
2018-10-21T04:20:23.385Z,5.64
2018-10-21T04:22:53.228Z,5.75
2018-10-21T04:25:21.764Z,5.79
2018-10-21T04:27:50.407Z,5.86
2018-10-21T04:30:22.065Z,5.88
2018-10-21T04:33:03.741Z,5.88
2018-10-21T04:35:31.967Z,5.96
2018-10-21T04:40:22.397Z,5.98
2018-10-21T04:42:50.735Z,6.05
2018-10-21T04:45:19.886Z,6.11
2018-10-21T04:47:47.656Z,6.12
2018-10-21T04:50:15.387Z,6.13
2018-10-21T04:52:43.195Z,6.17
2018-10-21T04:55:15.714Z,6.20
2018-10-21T04:57:44.864Z,6.20
2018-10-21T05:00:14.742Z,6.21
2018-10-21T05:02:42.452Z,6.24
2018-10-21T05:05:11.359Z,6.29
2018-10-21T05:07:39.487Z,6.32
2018-10-21T05:10:17.925Z,6.35
2018-10-21T05:12:45.697Z,6.38
2018-10-21T05:15:13.519Z,6.39
2018-10-21T05:17:41.424Z,6.42
2018-10-21T05:20:09.576Z,6.46
2018-10-21T05:22:37.293Z,6.49
2018-10-21T05:25:05.559Z,6.45
2018-10-21T05:27:33.296Z,6.46
2018-10-21T05:30:01.035Z,6.54
2018-10-21T05:32:28.750Z,6.56
2018-10-21T05:34:56.464Z,6.56
2018-10-21T05:37:24.294Z,6.57
2018-10-21T05:39:52.091Z,6.61
2018-10-21T05:42:19.801Z,6.60
2018-10-21T05:44:47.529Z,6.59
2018-10-21T05:47:15.339Z,6.62
2018-10-21T05:49:43.020Z,6.68
2018-10-21T05:52:10.783Z,6.70
2018-10-21T05:54:42.633Z,6.69
2018-10-21T05:57:10.425Z,6.72
2018-10-21T05:59:38.209Z,6.69
2018-10-21T06:02:05.992Z,6.69
2018-10-21T06:04:33.802Z,6.70
2018-10-21T06:07:01.545Z,6.71
2018-10-21T06:09:29.298Z,6.70
2018-10-21T06:11:57.069Z,6.68
2018-10-21T06:14:24.792Z,6.68
2018-10-21T06:16:56.966Z,6.69
2018-10-21T06:19:33.309Z,6.67
2018-10-21T06:22:01.115Z,6.66
2018-10-21T06:24:28.857Z,6.68
2018-10-21T06:26:56.599Z,6.67
2018-10-21T06:29:24.332Z,6.66
2018-10-21T06:31:52.056Z,6.64
2018-10-21T06:34:19.792Z,6.64
2018-10-21T06:36:47.589Z,6.62
2018-10-21T06:39:15.295Z,6.61
2018-10-21T06:41:43.036Z,6.61
2018-10-21T06:44:10.809Z,6.62
2018-10-21T06:46:38.684Z,6.61
2018-10-21T06:49:06.474Z,6.60
2018-10-21T06:51:34.245Z,6.58
2018-10-21T06:54:01.972Z,6.57
2018-10-21T06:56:29.750Z,6.55
2018-10-21T06:58:58.056Z,6.57
2018-10-21T07:01:25.840Z,6.59
2018-10-21T07:03:53.596Z,6.58
2018-10-21T07:06:25.500Z,6.58
2018-10-21T07:08:54.513Z,6.58
2018-10-21T07:11:22.244Z,6.59
2018-10-21T07:13:49.998Z,6.58
2018-10-21T07:16:17.867Z,6.60
2018-10-21T07:18:46.544Z,6.60
2018-10-21T07:21:14.394Z,6.61
2018-10-21T07:23:42.196Z,6.62
2018-10-21T07:26:10.001Z,6.63
2018-10-21T07:28:37.873Z,6.64
2018-10-21T07:31:05.676Z,6.67
2018-10-21T07:33:33.428Z,6.69
2018-10-21T07:36:01.164Z,6.70
2018-10-21T07:38:28.932Z,6.72
2018-10-21T07:40:56.696Z,6.76
2018-10-21T07:43:24.469Z,6.77
2018-10-21T07:45:52.228Z,6.79
2018-10-21T07:48:20.036Z,6.81
2018-10-21T07:50:47.828Z,6.85
2018-10-21T07:53:15.612Z,6.90
2018-10-21T07:55:43.397Z,6.91
2018-10-21T07:58:11.319Z,6.94
2018-10-21T08:00:39.032Z,6.90
2018-10-21T08:03:06.994Z,6.87
2018-10-21T08:05:45.885Z,6.86
2018-10-21T08:08:15.296Z,6.82
2018-10-21T08:10:43.089Z,6.79
2018-10-21T08:13:11.859Z,6.80
2018-10-21T08:15:40.188Z,6.79
2018-10-21T08:18:08.829Z,6.78
2018-10-21T08:20:37.110Z,6.75
2018-10-21T08:23:05.421Z,6.72
2018-10-21T08:25:33.134Z,6.60
2018-10-21T08:28:00.896Z,6.69
2018-10-21T08:30:28.673Z,6.70
2018-10-21T08:32:56.485Z,6.72
2018-10-21T08:35:24.327Z,6.73
2018-10-21T08:37:52.517Z,6.71
2018-10-21T08:40:20.240Z,6.76
2018-10-21T08:42:48.008Z,6.83
2018-10-21T08:45:15.744Z,6.86
2018-10-21T08:47:43.476Z,6.88
2018-10-21T08:50:12.199Z,6.86
2018-10-21T08:52:39.919Z,6.83
2018-10-21T08:55:08.272Z,6.84
2018-10-21T08:57:36.020Z,6.82
2018-10-21T09:00:04.079Z,6.83
2018-10-21T09:02:31.843Z,6.85
2018-10-21T09:04:59.564Z,6.87
2018-10-21T09:07:27.312Z,6.91
2018-10-21T09:09:55.105Z,6.97
2018-10-21T09:12:22.810Z,7.11
2018-10-21T09:14:50.569Z,7.14
2018-10-21T09:17:18.319Z,7.18
2018-10-21T09:19:46.051Z,7.17
2018-10-21T09:22:13.800Z,7.16
2018-10-21T09:24:41.540Z,7.17
2018-10-21T09:27:09.308Z,7.16
2018-10-21T09:29:37.020Z,7.16
2018-10-21T09:32:04.775Z,7.16
2018-10-21T09:34:32.524Z,7.20
2018-10-21T09:37:00.297Z,7.15
2018-10-21T09:39:28.059Z,7.20
2018-10-21T09:41:55.804Z,7.19
2018-10-21T09:44:23.538Z,7.20
2018-10-21T09:46:51.280Z,7.15
2018-10-21T09:49:19.076Z,7.13
2018-10-21T09:51:46.970Z,7.11
2018-10-21T09:54:14.612Z,7.14
2018-10-21T09:56:42.313Z,7.13
2018-10-21T09:59:10.028Z,7.12
2018-10-21T10:01:43.482Z,7.17
2018-10-21T10:04:11.210Z,7.22
2018-10-21T10:06:39.161Z,7.36
2018-10-21T10:09:11.138Z,7.51
2018-10-21T10:11:38.891Z,7.58
2018-10-21T10:14:06.668Z,7.66
2018-10-21T10:16:34.473Z,7.69
2018-10-21T10:19:02.403Z,7.74
2018-10-21T10:21:30.105Z,7.79
2018-10-21T10:23:57.926Z,7.80
2018-10-21T10:26:25.720Z,7.84
2018-10-21T10:28:53.458Z,7.86
2018-10-21T10:31:21.186Z,7.86
2018-10-21T10:33:48.993Z,7.78
2018-10-21T10:36:16.917Z,7.78
2018-10-21T10:38:44.472Z,7.80
2018-10-21T10:41:12.180Z,7.83
2018-10-21T10:43:40.539Z,7.89
2018-10-21T10:46:08.321Z,7.96
2018-10-21T10:48:36.047Z,8.02
2018-10-21T10:51:03.825Z,8.02
2018-10-21T10:53:31.679Z,8.06
2018-10-21T10:55:59.447Z,7.97
2018-10-21T10:58:27.169Z,7.96
2018-10-21T11:00:54.926Z,7.89
2018-10-21T11:03:22.679Z,7.90
2018-10-21T11:05:50.420Z,7.90
2018-10-21T11:08:18.146Z,7.89
2018-10-21T11:10:45.856Z,7.83
2018-10-21T11:13:13.642Z,7.78
2018-10-21T11:15:41.368Z,7.84
2018-10-21T11:18:09.097Z,7.90
2018-10-21T11:20:36.825Z,7.89
2018-10-21T11:23:04.645Z,7.86
2018-10-21T11:25:32.397Z,7.88
2018-10-21T11:28:00.176Z,7.85
2018-10-21T11:30:27.955Z,7.84
2018-10-21T11:32:55.724Z,7.84
2018-10-21T11:35:23.465Z,7.73
2018-10-21T11:37:51.208Z,7.87
2018-10-21T11:40:19.113Z,7.94
2018-10-21T11:42:46.838Z,7.89
2018-10-21T11:45:14.580Z,7.86
2018-10-21T11:47:42.328Z,7.88
2018-10-21T11:50:10.109Z,7.95
2018-10-21T11:52:37.988Z,8.02
2018-10-21T11:55:06.890Z,8.09
2018-10-21T11:57:34.584Z,8.09
2018-10-21T12:00:02.455Z,8.07
2018-10-21T12:02:30.289Z,8.12
2018-10-21T12:04:58.028Z,8.11
2018-10-21T12:07:25.831Z,8.07
2018-10-21T12:09:55.378Z,8.09
2018-10-21T12:12:23.145Z,8.07
2018-10-21T12:14:51.544Z,8.09
2018-10-21T12:17:19.302Z,8.11
2018-10-21T12:19:47.085Z,8.10
2018-10-21T12:22:14.928Z,8.09
2018-10-21T12:24:42.564Z,8.10
2018-10-21T12:27:10.319Z,8.12
2018-10-21T12:29:38.038Z,8.02
2018-10-21T12:32:05.818Z,8.05
2018-10-21T12:34:33.577Z,8.06
2018-10-21T12:37:01.417Z,8.03
2018-10-21T12:39:29.165Z,8.03
2018-10-21T12:41:56.918Z,8.02
2018-10-21T12:44:24.648Z,7.98
2018-10-21T12:46:52.420Z,7.93
2018-10-21T12:49:20.145Z,7.89
2018-10-21T12:51:47.877Z,7.88
2018-10-21T12:54:15.671Z,7.86
2018-10-21T12:56:43.341Z,7.81
2018-10-21T12:59:11.146Z,7.77
2018-10-21T13:01:38.986Z,7.75
2018-10-21T13:04:06.789Z,7.72
2018-10-21T13:06:34.513Z,7.72
2018-10-21T13:09:02.297Z,7.69
2018-10-21T13:11:30.025Z,7.65
2018-10-21T13:13:57.779Z,7.63
2018-10-21T13:16:25.503Z,7.62
2018-10-21T13:18:53.250Z,7.61
2018-10-21T13:21:21.027Z,7.59
2018-10-21T13:23:48.840Z,7.54
2018-10-21T13:26:16.555Z,7.52
2018-10-21T13:28:44.381Z,7.51
2018-10-21T13:31:12.196Z,7.49
2018-10-21T13:33:39.866Z,7.50
2018-10-21T13:36:07.659Z,7.50
2018-10-21T13:38:35.377Z,7.50
2018-10-21T13:41:03.233Z,7.49
2018-10-21T13:43:31.053Z,7.44
2018-10-21T13:45:58.852Z,7.40
2018-10-21T13:48:26.527Z,7.38
2018-10-21T13:50:54.275Z,7.34
2018-10-21T13:53:22.036Z,7.34
2018-10-21T13:55:49.812Z,7.33
2018-10-21T13:58:17.672Z,7.31
2018-10-21T14:00:45.454Z,7.26
2018-10-21T14:03:13.144Z,7.21
2018-10-21T14:05:40.879Z,7.17
2018-10-21T14:08:08.646Z,7.16
2018-10-21T14:10:36.345Z,7.16
2018-10-21T14:13:04.530Z,7.14
2018-10-21T14:15:32.280Z,7.15
2018-10-21T14:18:00.030Z,7.16
2018-10-21T14:20:27.752Z,7.17
2018-10-21T14:22:55.469Z,7.17
2018-10-21T14:25:23.378Z,7.16
2018-10-21T14:27:51.085Z,7.17
2018-10-21T14:30:18.884Z,7.17
2018-10-21T14:32:46.632Z,7.16
2018-10-21T14:35:14.950Z,7.16
2018-10-21T14:37:42.704Z,7.17
2018-10-21T14:40:12.227Z,7.15
2018-10-21T14:42:40.219Z,7.16
2018-10-21T14:45:09.395Z,7.16
2018-10-21T14:47:37.614Z,7.15
2018-10-21T14:50:05.504Z,7.12
2018-10-21T14:52:33.245Z,7.13
2018-10-21T14:55:00.980Z,7.10
2018-10-21T14:57:28.839Z,7.09
2018-10-21T14:59:56.611Z,7.09
2018-10-21T15:02:24.360Z,7.07
2018-10-21T15:04:52.102Z,7.08
2018-10-21T15:07:19.843Z,7.08
2018-10-21T15:09:47.649Z,7.05
2018-10-21T15:12:15.445Z,7.06
2018-10-21T15:14:43.175Z,7.05
2018-10-21T15:17:10.939Z,7.05
2018-10-21T15:19:38.705Z,7.05
2018-10-21T15:22:06.548Z,7.03
2018-10-21T15:24:34.381Z,7.03
2018-10-21T15:27:02.128Z,7.02
2018-10-21T15:29:29.909Z,7.02
2018-10-21T15:31:57.630Z,7.00
2018-10-21T15:34:25.407Z,7.01
2018-10-21T15:36:53.173Z,7.01
2018-10-21T15:39:20.943Z,7.01
2018-10-21T15:41:48.700Z,7.00
2018-10-21T15:44:16.545Z,6.98
2018-10-21T15:46:44.305Z,6.98
2018-10-21T15:49:12.049Z,6.97
2018-10-21T15:51:39.887Z,6.97
2018-10-21T15:54:07.760Z,6.97
2018-10-21T15:56:35.539Z,6.97
2018-10-21T15:59:03.309Z,6.95
2018-10-21T16:01:31.157Z,6.94
2018-10-21T16:03:58.897Z,6.93
2018-10-21T16:06:26.668Z,6.93
2018-10-21T16:08:54.591Z,6.94
2018-10-21T16:11:22.378Z,6.94
2018-10-21T16:13:50.103Z,6.93
2018-10-21T16:16:18.003Z,6.92
2018-10-21T16:18:45.775Z,6.94
2018-10-21T16:21:13.554Z,6.93
2018-10-21T16:23:41.446Z,6.93
2018-10-21T16:26:09.303Z,6.90
2018-10-21T16:28:37.023Z,6.90
2018-10-21T16:31:04.989Z,6.90
2018-10-21T16:33:32.724Z,6.90
2018-10-21T16:36:00.516Z,6.90
2018-10-21T16:38:28.366Z,6.89
2018-10-21T16:40:56.122Z,6.89
2018-10-21T16:43:23.848Z,6.88
2018-10-21T16:45:51.600Z,6.89
2018-10-21T16:48:19.375Z,6.87
2018-10-21T16:50:47.143Z,6.86
2018-10-21T16:53:14.929Z,6.88
2018-10-21T16:55:42.728Z,6.87
2018-10-21T16:58:10.471Z,6.86
2018-10-21T17:00:38.398Z,6.83
2018-10-21T17:03:06.122Z,6.84
2018-10-21T17:05:33.812Z,6.83
2018-10-21T17:08:01.580Z,6.84
2018-10-21T17:10:29.647Z,6.83
2018-10-21T17:12:57.176Z,6.81
2018-10-21T17:15:24.940Z,6.81
2018-10-21T17:17:52.665Z,6.80
2018-10-21T17:20:20.389Z,6.80
2018-10-21T17:22:48.128Z,6.78
2018-10-21T17:25:16.031Z,6.78
2018-10-21T17:27:43.930Z,6.78
2018-10-21T17:30:14.258Z,6.76
2018-10-21T17:32:42.288Z,6.77
2018-10-21T17:35:10.429Z,6.78
2018-10-21T17:37:38.666Z,6.79
2018-10-21T17:40:07.409Z,6.79
2018-10-21T17:42:35.212Z,6.78
2018-10-21T17:45:03.032Z,6.79
2018-10-21T17:47:30.748Z,6.78
2018-10-21T17:49:58.552Z,6.80
2018-10-21T17:52:26.514Z,6.80
2018-10-21T17:54:54.285Z,6.80
2018-10-21T17:57:22.049Z,6.81
2018-10-21T17:59:49.792Z,6.76
2018-10-21T18:02:17.600Z,6.81
2018-10-21T18:04:45.361Z,6.80
2018-10-21T18:07:13.132Z,6.82
2018-10-21T18:09:40.872Z,6.80
2018-10-21T18:12:08.657Z,6.80
2018-10-21T18:14:36.424Z,6.82
2018-10-21T18:17:04.460Z,6.81
2018-10-21T18:19:32.220Z,6.81
2018-10-21T18:22:00.047Z,6.83
2018-10-21T18:24:27.810Z,6.84
2018-10-21T18:26:55.565Z,6.83
2018-10-21T18:29:23.375Z,6.83
2018-10-21T18:31:51.149Z,6.84
2018-10-21T18:34:18.881Z,6.83
2018-10-21T18:36:46.667Z,6.85
2018-10-21T18:39:14.376Z,6.85
2018-10-21T18:41:42.155Z,6.85
2018-10-21T18:44:10.017Z,6.85
2018-10-21T18:46:37.731Z,6.85
2018-10-21T18:49:05.573Z,6.85
2018-10-21T18:51:33.395Z,6.84
2018-10-21T18:54:01.124Z,6.85
2018-10-21T18:56:28.916Z,6.84
2018-10-21T18:58:56.684Z,6.85
2018-10-21T19:01:24.476Z,6.85
2018-10-21T19:03:52.284Z,6.85
2018-10-21T19:06:20.064Z,6.86
2018-10-21T19:08:47.856Z,6.84
2018-10-21T19:11:15.735Z,6.86
2018-10-21T19:13:43.467Z,6.86
2018-10-21T19:16:11.299Z,6.87
2018-10-21T19:18:39.032Z,6.86
2018-10-21T19:21:06.744Z,6.86
2018-10-21T19:23:34.476Z,6.86
2018-10-21T19:26:02.265Z,6.86
2018-10-21T19:28:30.042Z,6.87
2018-10-21T19:30:57.872Z,6.87
2018-10-21T19:33:25.571Z,6.86
2018-10-21T19:35:53.324Z,6.84
2018-10-21T19:38:21.077Z,6.52
2018-10-21T19:40:48.827Z,6.86
2018-10-21T19:43:16.732Z,6.86
2018-10-21T19:45:44.452Z,6.86
2018-10-21T19:48:12.188Z,6.85
2018-10-21T19:50:39.956Z,6.85
2018-10-21T19:53:07.728Z,6.85
2018-10-21T19:55:35.473Z,6.84
2018-10-21T19:58:03.295Z,6.82
2018-10-21T20:00:31.039Z,6.81
2018-10-21T20:02:58.780Z,6.82
2018-10-21T20:05:26.546Z,6.81
2018-10-21T20:07:54.247Z,6.80
2018-10-21T20:10:22.065Z,6.79
2018-10-21T20:12:49.763Z,6.78
2018-10-21T20:15:17.511Z,6.75
2018-10-21T20:17:45.260Z,6.72
2018-10-21T20:20:13.181Z,6.72
2018-10-21T20:22:40.920Z,6.71
2018-10-21T20:25:09.551Z,6.69
2018-10-21T20:27:37.348Z,6.69
2018-10-21T20:30:06.362Z,6.71
2018-10-21T20:32:34.149Z,6.70
2018-10-21T20:35:01.841Z,6.70
2018-10-21T20:37:29.643Z,6.70
2018-10-21T20:39:57.406Z,6.69
2018-10-21T20:42:25.149Z,6.68
2018-10-21T20:44:52.909Z,6.67
2018-10-21T20:47:20.714Z,6.66
2018-10-21T20:49:48.475Z,6.65
2018-10-21T20:52:16.327Z,6.64
2018-10-21T20:54:47.376Z,6.64
2018-10-21T20:57:15.220Z,6.61
2018-10-21T20:59:44.090Z,6.62
2018-10-21T21:02:13.129Z,6.61
2018-10-21T21:04:40.885Z,6.61
2018-10-21T21:07:09.262Z,6.60
2018-10-21T21:09:37.485Z,6.60
2018-10-21T21:12:05.337Z,6.60
2018-10-21T21:14:33.481Z,6.61
2018-10-21T21:17:01.565Z,6.60
2018-10-21T21:19:29.305Z,6.59
2018-10-21T21:21:57.045Z,6.59
2018-10-21T21:24:24.944Z,6.58
2018-10-21T21:26:52.689Z,6.59
2018-10-21T21:29:20.457Z,6.58
2018-10-21T21:31:48.211Z,6.59
2018-10-21T21:34:16.501Z,6.58
2018-10-21T21:36:44.318Z,6.56
2018-10-21T21:39:13.404Z,6.56
2018-10-21T21:41:42.317Z,6.54
2018-10-21T21:44:10.024Z,6.52
2018-10-21T21:46:38.366Z,6.51
2018-10-21T21:49:07.031Z,6.52
2018-10-21T21:51:34.782Z,6.52
2018-10-21T21:54:02.625Z,6.51
2018-10-21T21:56:30.485Z,6.51
2018-10-21T21:58:58.253Z,6.51
2018-10-21T22:01:26.089Z,6.50
2018-10-21T22:03:53.902Z,6.48
2018-10-21T22:06:21.719Z,6.46
2018-10-21T22:08:49.443Z,6.46
2018-10-21T22:11:17.455Z,6.46
2018-10-21T22:13:45.228Z,6.46
2018-10-21T22:16:13.017Z,6.45
2018-10-21T22:18:40.769Z,6.42
2018-10-21T22:21:08.493Z,6.43
2018-10-21T22:23:36.230Z,6.41
2018-10-21T22:26:04.058Z,6.41
2018-10-21T22:28:31.832Z,6.40
2018-10-21T22:30:59.584Z,6.38
2018-10-21T22:33:27.301Z,6.37
2018-10-21T22:35:55.071Z,6.36
2018-10-21T22:38:22.793Z,6.37
2018-10-21T22:40:50.531Z,6.35
2018-10-21T22:43:18.277Z,6.35
2018-10-21T22:45:45.985Z,6.34
2018-10-21T22:48:14.056Z,6.35
2018-10-21T22:50:41.812Z,6.35
2018-10-21T22:53:09.502Z,6.32
2018-10-21T22:55:37.216Z,6.31
2018-10-21T22:58:05.343Z,6.31
2018-10-21T23:00:33.181Z,6.30
2018-10-21T23:03:00.934Z,6.28
2018-10-21T23:05:28.701Z,6.28
2018-10-21T23:07:56.408Z,6.26
2018-10-21T23:10:24.127Z,6.24
2018-10-21T23:12:51.851Z,6.24
2018-10-21T23:15:19.697Z,6.22
2018-10-21T23:17:47.432Z,6.19
2018-10-21T23:20:15.156Z,6.20
2018-10-21T23:22:42.912Z,6.19
2018-10-21T23:25:10.698Z,6.19
2018-10-21T23:27:38.448Z,6.16
2018-10-21T23:30:07.096Z,6.14
2018-10-21T23:32:34.770Z,6.13
2018-10-21T23:35:02.517Z,6.10
2018-10-21T23:37:30.276Z,6.11
2018-10-21T23:39:58.012Z,6.08
2018-10-21T23:42:25.822Z,6.04
2018-10-21T23:44:53.551Z,6.01
2018-10-21T23:47:21.286Z,5.99
2018-10-21T23:49:49.071Z,5.96
2018-10-21T23:52:16.849Z,5.94
2018-10-21T23:54:44.564Z,5.93
2018-10-21T23:57:12.282Z,5.93
2018-10-21T23:59:40.012Z,5.91
